createdAt,value
2022-10-24T00:01:36.992Z,1.60
2022-10-24T00:06:38.858Z,1.50
2022-10-24T00:09:07.050Z,2.17
2022-10-24T00:11:35.319Z,2.00
2022-10-24T00:14:03.722Z,1.52
2022-10-24T00:16:33.412Z,1.70
2022-10-24T00:19:01.653Z,1.70
2022-10-24T00:21:29.924Z,1.52
2022-10-24T00:23:58.094Z,1.33
2022-10-24T00:26:26.307Z,2.33
2022-10-24T00:28:54.532Z,1.88
2022-10-24T00:31:22.821Z,1.88
2022-10-24T00:33:52.344Z,1.42
2022-10-24T00:36:21.689Z,1.80
2022-10-24T00:38:50.618Z,1.52
2022-10-24T00:41:19.613Z,1.60
2022-10-24T00:43:47.895Z,1.80
2022-10-24T00:46:16.385Z,1.63
2022-10-24T00:48:46.886Z,1.60
2022-10-24T00:51:24.553Z,1.10
2022-10-24T00:53:54.403Z,1.80
2022-10-24T00:56:24.668Z,1.30
2022-10-24T00:58:53.828Z,1.63
2022-10-24T01:01:22.177Z,1.35
2022-10-24T01:03:50.414Z,1.55
2022-10-24T01:06:25.157Z,1.65
2022-10-24T01:08:57.290Z,1.20
2022-10-24T01:11:32.465Z,1.50
2022-10-24T01:14:04.632Z,1.52
2022-10-24T01:16:36.913Z,1.38
2022-10-24T01:19:09.830Z,1.25
2022-10-24T01:21:42.179Z,1.15
2022-10-24T01:24:34.294Z,1.30
2022-10-24T01:27:09.970Z,0.90
2022-10-24T01:29:53.283Z,1.27
2022-10-24T01:32:29.254Z,1.25
2022-10-24T01:35:01.460Z,1.33
2022-10-24T01:37:31.478Z,1.40
2022-10-24T01:40:02.125Z,1.08
2022-10-24T01:42:31.656Z,1.20
2022-10-24T01:45:01.333Z,1.15
2022-10-24T01:47:32.902Z,1.27
2022-10-24T01:50:02.995Z,0.88
2022-10-24T01:52:33.653Z,0.80
2022-10-24T01:55:01.978Z,1.00
2022-10-24T01:57:30.303Z,1.27
2022-10-24T01:59:58.618Z,1.10
2022-10-24T02:02:29.070Z,1.25
2022-10-24T02:04:59.904Z,1.52
2022-10-24T02:07:28.800Z,1.48
2022-10-24T02:09:59.696Z,1.00
2022-10-24T02:12:28.312Z,1.17
2022-10-24T02:14:59.023Z,1.05
2022-10-24T02:19:55.836Z,0.90
2022-10-24T02:22:29.952Z,1.27
2022-10-24T02:25:02.356Z,1.15
2022-10-24T02:27:33.187Z,1.00
2022-10-24T02:30:03.310Z,1.13
2022-10-24T02:32:33.682Z,1.10
2022-10-24T02:35:02.712Z,1.00
2022-10-24T02:37:33.583Z,1.55
2022-10-24T02:40:02.289Z,1.35
2022-10-24T02:42:31.530Z,0.70
2022-10-24T02:45:00.393Z,1.10
2022-10-24T02:47:29.980Z,1.00
2022-10-24T02:49:58.184Z,1.02
2022-10-24T02:52:26.831Z,1.17
2022-10-24T02:54:56.482Z,0.77
2022-10-24T02:57:26.814Z,1.58
2022-10-24T02:59:55.072Z,1.15
2022-10-24T03:02:23.717Z,0.90
2022-10-24T03:04:51.956Z,1.27
2022-10-24T03:07:20.220Z,1.00
2022-10-24T03:09:48.529Z,0.80
2022-10-24T03:12:18.652Z,0.50
2022-10-24T03:14:46.929Z,0.70
2022-10-24T03:17:15.182Z,0.63
2022-10-24T03:19:45.163Z,0.88
2022-10-24T03:22:13.494Z,0.80
2022-10-24T03:24:55.228Z,0.57
2022-10-24T03:27:25.487Z,1.75
2022-10-24T03:29:53.828Z,0.50
2022-10-24T03:32:22.110Z,0.45
2022-10-24T03:34:50.509Z,0.70
2022-10-24T03:37:18.953Z,0.80
2022-10-24T03:39:47.438Z,1.27
2022-10-24T03:42:15.831Z,1.10
2022-10-24T03:44:45.499Z,0.95
2022-10-24T03:47:13.772Z,1.08
2022-10-24T03:49:42.000Z,0.50
2022-10-24T03:52:10.531Z,0.80
2022-10-24T03:54:39.511Z,0.85
2022-10-24T03:57:10.015Z,0.60
2022-10-24T03:59:38.923Z,1.15
2022-10-24T04:02:08.490Z,0.63
2022-10-24T04:04:36.884Z,0.80
2022-10-24T04:07:05.755Z,0.63
2022-10-24T04:09:33.986Z,0.63
2022-10-24T04:12:02.236Z,0.57
2022-10-24T04:14:30.422Z,0.82
2022-10-24T04:16:58.802Z,1.27
2022-10-24T04:19:28.475Z,1.02
2022-10-24T04:21:56.765Z,0.57
2022-10-24T04:24:25.074Z,0.50
2022-10-24T04:26:53.447Z,0.70
2022-10-24T04:29:21.712Z,0.95
2022-10-24T04:31:50.015Z,0.43
2022-10-24T04:34:18.899Z,0.63
2022-10-24T04:36:48.404Z,0.60
2022-10-24T04:39:16.711Z,0.60
2022-10-24T04:41:45.014Z,0.80
2022-10-24T04:44:13.611Z,0.77
2022-10-24T04:46:42.046Z,1.00
2022-10-24T04:49:10.801Z,1.05
2022-10-24T04:51:38.981Z,0.98
2022-10-24T04:54:09.357Z,0.63
2022-10-24T04:56:37.685Z,0.60
2022-10-24T04:59:05.863Z,0.32
2022-10-24T05:01:34.226Z,0.38
2022-10-24T05:06:35.830Z,0.68
2022-10-24T05:09:04.072Z,1.08
2022-10-24T05:11:33.882Z,0.40
2022-10-24T05:14:02.295Z,0.50
2022-10-24T05:16:30.485Z,0.85
2022-10-24T05:18:58.690Z,0.55
2022-10-24T05:21:26.994Z,0.43
2022-10-24T05:23:55.377Z,0.40
2022-10-24T05:26:23.680Z,0.90
2022-10-24T05:28:53.420Z,0.80
2022-10-24T05:31:21.771Z,0.60
2022-10-24T05:33:50.170Z,0.43
2022-10-24T05:36:18.527Z,1.50
2022-10-24T05:38:46.982Z,0.70
2022-10-24T05:41:15.210Z,0.60
2022-10-24T05:43:43.557Z,0.80
2022-10-24T05:46:13.113Z,0.55
2022-10-24T05:48:41.663Z,0.75
2022-10-24T05:51:09.950Z,0.90
2022-10-24T05:53:38.480Z,0.60
2022-10-24T05:56:07.085Z,0.80
2022-10-24T05:58:35.407Z,0.82
2022-10-24T06:01:03.814Z,0.70
2022-10-24T06:03:33.414Z,0.77
2022-10-24T06:06:04.755Z,1.02
2022-10-24T06:08:33.026Z,0.63
2022-10-24T06:11:01.225Z,1.05
2022-10-24T06:13:35.174Z,0.90
2022-10-24T06:16:04.530Z,0.50
2022-10-24T06:18:34.287Z,0.75
2022-10-24T06:21:02.545Z,0.88
2022-10-24T06:23:30.709Z,1.10
2022-10-24T06:25:59.097Z,0.82
2022-10-24T06:28:27.343Z,0.52
2022-10-24T06:30:55.960Z,1.02
2022-10-24T06:33:24.298Z,0.82
2022-10-24T06:35:53.848Z,0.68
2022-10-24T06:38:22.102Z,0.63
2022-10-24T06:40:50.353Z,1.33
2022-10-24T06:43:19.530Z,0.93
2022-10-24T06:45:47.769Z,1.35
2022-10-24T06:48:16.016Z,1.00
2022-10-24T06:50:44.229Z,0.80
2022-10-24T06:53:13.940Z,0.60
2022-10-24T06:55:42.183Z,0.73
2022-10-24T06:58:12.688Z,1.17
2022-10-24T07:00:40.908Z,0.75
2022-10-24T07:03:09.237Z,1.00
2022-10-24T07:05:38.676Z,0.77
2022-10-24T07:08:07.269Z,0.55
2022-10-24T07:10:37.000Z,0.57
2022-10-24T07:13:05.169Z,0.60
2022-10-24T07:15:33.412Z,0.95
2022-10-24T07:18:01.674Z,1.05
2022-10-24T07:20:30.026Z,1.13
2022-10-24T07:22:58.317Z,1.83
2022-10-24T07:25:26.621Z,0.93
2022-10-24T07:27:56.162Z,1.20
2022-10-24T07:30:24.566Z,1.00
2022-10-24T07:32:52.967Z,1.73
2022-10-24T07:35:21.308Z,1.10
2022-10-24T07:37:49.589Z,0.95
2022-10-24T07:40:18.353Z,0.60
2022-10-24T07:42:46.620Z,1.05
2022-10-24T07:45:21.856Z,0.60
2022-10-24T07:47:50.337Z,0.90
2022-10-24T07:50:18.651Z,0.90
2022-10-24T07:52:46.837Z,0.63
2022-10-24T07:55:15.218Z,0.82
2022-10-24T07:57:43.961Z,0.63
2022-10-24T08:00:12.845Z,0.80
2022-10-24T08:02:42.661Z,0.82
2022-10-24T08:05:12.503Z,1.25
2022-10-24T08:07:40.797Z,1.00
2022-10-24T08:10:10.657Z,0.70
2022-10-24T08:12:39.020Z,1.23
2022-10-24T08:15:08.088Z,0.93
2022-10-24T08:17:37.379Z,1.17
2022-10-24T08:20:08.783Z,0.70
2022-10-24T08:22:37.143Z,0.88
2022-10-24T08:25:09.620Z,0.52
2022-10-24T08:27:37.914Z,0.95
2022-10-24T08:30:06.597Z,0.85
2022-10-24T08:32:34.973Z,0.85
2022-10-24T08:35:03.394Z,0.63
2022-10-24T08:37:33.215Z,0.60
2022-10-24T08:40:01.579Z,0.65
2022-10-24T08:42:29.925Z,1.00
2022-10-24T08:44:58.275Z,1.98
2022-10-24T08:47:31.104Z,1.02
2022-10-24T08:50:02.957Z,0.85
2022-10-24T08:52:34.172Z,0.70
2022-10-24T08:55:07.446Z,1.30
2022-10-24T08:57:37.419Z,0.80
2022-10-24T09:00:07.328Z,1.15
2022-10-24T09:02:37.905Z,0.82
2022-10-24T09:05:23.002Z,0.57
2022-10-24T09:07:56.578Z,0.80
2022-10-24T09:10:27.900Z,0.43
2022-10-24T09:12:56.149Z,1.10
2022-10-24T09:15:27.495Z,0.90
2022-10-24T09:17:57.207Z,0.60
2022-10-24T09:20:27.536Z,1.00
2022-10-24T09:22:58.154Z,0.90
2022-10-24T09:25:29.627Z,0.82
2022-10-24T09:27:59.295Z,0.70
2022-10-24T09:30:31.651Z,1.10
2022-10-24T09:33:04.354Z,0.80
2022-10-24T09:35:35.336Z,0.90
2022-10-24T09:38:27.985Z,1.00
2022-10-24T09:40:57.428Z,1.10
2022-10-24T09:43:28.031Z,0.90
2022-10-24T09:46:02.766Z,1.33
2022-10-24T09:48:34.067Z,0.75
2022-10-24T09:51:02.945Z,0.68
2022-10-24T09:53:34.383Z,0.68
2022-10-24T09:56:08.152Z,0.80
2022-10-24T09:58:36.554Z,0.40
2022-10-24T10:01:06.574Z,0.50
2022-10-24T10:03:35.411Z,0.90
2022-10-24T10:06:06.193Z,0.80
2022-10-24T10:08:36.847Z,0.90
2022-10-24T10:11:07.387Z,0.82
2022-10-24T10:13:38.608Z,0.80
2022-10-24T10:16:10.740Z,0.43
2022-10-24T10:18:46.807Z,0.70
2022-10-24T10:21:16.690Z,1.27
2022-10-24T10:23:47.167Z,1.05
2022-10-24T10:26:23.061Z,1.15
2022-10-24T10:28:56.614Z,1.25
2022-10-24T10:31:27.219Z,0.90
2022-10-24T10:34:15.003Z,1.13
2022-10-24T10:36:50.703Z,0.82
2022-10-24T10:39:31.198Z,1.08
2022-10-24T10:42:03.440Z,0.77
2022-10-24T10:44:40.882Z,1.25
2022-10-24T10:47:13.837Z,1.00
2022-10-24T10:49:44.123Z,0.30
2022-10-24T10:52:14.898Z,0.82
2022-10-24T10:54:57.440Z,0.52
2022-10-24T10:57:29.947Z,0.80
2022-10-24T11:00:00.268Z,0.70
2022-10-24T11:02:52.177Z,1.02
2022-10-24T11:05:28.451Z,0.60
2022-10-24T11:08:01.520Z,0.73
2022-10-24T11:10:34.125Z,0.50
2022-10-24T11:13:05.506Z,0.60
2022-10-24T11:15:36.119Z,0.43
2022-10-24T11:18:08.064Z,0.60
2022-10-24T11:20:37.536Z,0.70
2022-10-24T11:23:08.572Z,1.38
2022-10-24T11:25:39.012Z,1.10
2022-10-24T11:28:09.205Z,0.75
2022-10-24T11:30:42.768Z,1.20
2022-10-24T11:33:14.333Z,0.80
2022-10-24T11:35:54.839Z,1.08
2022-10-24T11:38:24.953Z,0.60
2022-10-24T11:40:58.821Z,1.25
2022-10-24T11:43:30.225Z,0.70
2022-10-24T11:46:01.894Z,0.88
2022-10-24T11:48:32.306Z,0.73
2022-10-24T11:51:02.848Z,0.70
2022-10-24T11:53:55.157Z,0.50
2022-10-24T11:56:30.917Z,0.63
2022-10-24T11:59:00.696Z,0.50
2022-10-24T12:01:45.486Z,0.85
2022-10-24T12:04:28.678Z,1.25
2022-10-24T12:07:30.594Z,2.13
2022-10-24T12:10:07.988Z,0.90
2022-10-24T12:12:49.406Z,0.75
2022-10-24T12:15:32.204Z,0.80
2022-10-24T12:18:05.014Z,0.80
2022-10-24T12:20:33.652Z,0.82
2022-10-24T12:23:02.721Z,0.85
2022-10-24T12:25:33.283Z,0.68
2022-10-24T12:28:04.002Z,0.95
2022-10-24T12:30:33.660Z,0.93
2022-10-24T12:33:10.111Z,0.85
2022-10-24T12:35:51.803Z,1.05
2022-10-24T12:38:38.862Z,0.70
2022-10-24T12:41:09.556Z,0.88
2022-10-24T12:43:40.083Z,1.15
2022-10-24T12:46:27.196Z,1.00
2022-10-24T12:49:10.468Z,0.70
2022-10-24T12:51:39.340Z,0.93
2022-10-24T12:54:16.314Z,0.80
2022-10-24T12:57:02.950Z,1.15
2022-10-24T12:59:33.165Z,0.93
2022-10-24T13:02:22.481Z,0.70
2022-10-24T13:04:58.370Z,0.60
2022-10-24T13:07:32.002Z,0.57
2022-10-24T13:10:05.010Z,0.80
2022-10-24T13:12:40.564Z,0.55
2022-10-24T13:15:18.630Z,0.63
2022-10-24T13:17:51.001Z,0.70
2022-10-24T13:20:20.227Z,0.88
2022-10-24T13:22:50.791Z,1.10
2022-10-24T13:25:23.300Z,0.93
2022-10-24T13:28:06.361Z,1.10
2022-10-24T13:30:36.124Z,1.10
2022-10-24T13:33:33.478Z,1.20
2022-10-24T13:36:14.693Z,0.88
2022-10-24T13:38:46.497Z,1.33
2022-10-24T13:41:19.761Z,0.88
2022-10-24T13:43:49.786Z,0.80
2022-10-24T13:46:23.955Z,1.15
2022-10-24T13:48:52.915Z,0.73
2022-10-24T13:51:23.254Z,1.00
2022-10-24T13:53:53.932Z,0.60
2022-10-24T13:56:22.343Z,1.08
2022-10-24T13:58:50.909Z,0.70
2022-10-24T14:01:22.587Z,0.70
2022-10-24T14:03:51.311Z,1.20
2022-10-24T14:06:24.946Z,1.08
2022-10-24T14:09:05.586Z,1.20
2022-10-24T14:11:35.574Z,0.95
2022-10-24T14:14:07.762Z,0.90
2022-10-24T14:16:37.746Z,0.95
2022-10-24T14:19:16.648Z,0.85
2022-10-24T14:21:47.362Z,1.30
2022-10-24T14:24:16.497Z,1.00
2022-10-24T14:26:45.502Z,1.08
2022-10-24T14:29:21.620Z,1.00
2022-10-24T14:31:57.467Z,1.10
2022-10-24T14:34:25.862Z,0.98
2022-10-24T14:36:55.858Z,1.40
2022-10-24T14:39:24.704Z,0.63
2022-10-24T14:41:53.526Z,0.88
2022-10-24T14:44:23.097Z,0.60
2022-10-24T14:47:04.315Z,0.88
2022-10-24T14:49:33.886Z,0.70
2022-10-24T14:52:09.794Z,0.43
2022-10-24T14:54:39.083Z,1.33
2022-10-24T14:57:10.372Z,0.50
2022-10-24T14:59:41.915Z,1.05
2022-10-24T15:02:20.470Z,0.60
2022-10-24T15:04:50.362Z,1.08
2022-10-24T15:07:30.218Z,0.80
2022-10-24T15:09:59.420Z,0.60
2022-10-24T15:12:28.682Z,0.57
2022-10-24T15:14:57.104Z,0.40
2022-10-24T15:17:32.770Z,1.38
2022-10-24T15:20:02.276Z,0.77
2022-10-24T15:22:32.460Z,0.80
2022-10-24T15:25:01.733Z,1.00
2022-10-24T15:27:30.875Z,0.38
2022-10-24T15:29:59.271Z,1.38
2022-10-24T15:32:28.845Z,1.23
2022-10-24T15:34:57.124Z,1.30
2022-10-24T15:37:28.504Z,1.80
2022-10-24T15:39:56.862Z,1.40
2022-10-24T15:42:25.025Z,2.28
2022-10-24T15:44:53.378Z,1.13
2022-10-24T15:47:24.511Z,0.93
2022-10-24T15:49:54.226Z,1.23
2022-10-24T15:52:22.548Z,1.42
2022-10-24T15:54:50.950Z,1.52
2022-10-24T15:57:20.580Z,1.67
2022-10-24T15:59:49.150Z,1.05
2022-10-24T16:02:18.571Z,1.33
2022-10-24T16:04:46.955Z,1.15
2022-10-24T16:07:16.976Z,1.10
2022-10-24T16:09:45.273Z,1.02
2022-10-24T16:12:14.169Z,1.67
2022-10-24T16:14:42.588Z,1.88
2022-10-24T16:17:10.877Z,1.67
2022-10-24T16:19:39.105Z,1.02
2022-10-24T16:22:08.525Z,1.55
2022-10-24T16:24:38.222Z,1.58
2022-10-24T16:27:07.273Z,1.73
2022-10-24T16:29:35.594Z,1.48
2022-10-24T16:32:03.873Z,1.67
2022-10-24T16:34:32.114Z,1.30
2022-10-24T16:37:00.285Z,1.70
2022-10-24T16:39:28.595Z,0.93
2022-10-24T16:41:58.558Z,1.25
2022-10-24T16:44:27.300Z,1.67
2022-10-24T16:46:55.550Z,1.45
2022-10-24T16:49:24.379Z,1.55
2022-10-24T16:51:52.626Z,1.30
2022-10-24T16:54:22.722Z,0.90
2022-10-24T16:56:53.922Z,1.08
2022-10-24T16:59:23.997Z,1.23
2022-10-24T17:01:52.337Z,1.35
2022-10-24T17:04:20.620Z,1.38
2022-10-24T17:06:48.997Z,1.23
2022-10-24T17:09:17.301Z,1.58
2022-10-24T17:11:46.512Z,1.00
2022-10-24T17:14:15.217Z,1.55
2022-10-24T17:16:45.511Z,1.05
2022-10-24T17:19:16.482Z,1.17
2022-10-24T17:21:46.769Z,1.88
2022-10-24T17:24:15.955Z,1.58
2022-10-24T17:26:44.319Z,1.50
2022-10-24T17:29:14.601Z,1.63
2022-10-24T17:31:42.942Z,1.20
2022-10-24T17:34:12.778Z,1.65
2022-10-24T17:36:41.903Z,1.98
2022-10-24T17:39:13.194Z,1.42
2022-10-24T17:41:41.973Z,1.67
2022-10-24T17:44:14.302Z,1.67
2022-10-24T17:46:42.742Z,1.35
2022-10-24T17:49:15.469Z,1.23
2022-10-24T17:51:49.010Z,1.63
2022-10-24T17:54:17.271Z,1.15
2022-10-24T17:56:45.442Z,1.70
2022-10-24T17:59:14.570Z,2.33
2022-10-24T18:01:42.897Z,2.05
2022-10-24T18:04:11.696Z,1.80
2022-10-24T18:06:43.075Z,1.67
2022-10-24T18:09:13.167Z,1.35
2022-10-24T18:11:43.287Z,1.73
2022-10-24T18:14:11.776Z,1.30
2022-10-24T18:16:40.667Z,1.42
2022-10-24T18:19:08.914Z,1.55
2022-10-24T18:21:37.141Z,2.25
2022-10-24T18:24:09.725Z,1.55
2022-10-24T18:26:39.427Z,1.40
2022-10-24T18:29:07.792Z,1.40
2022-10-24T18:31:36.411Z,1.70
2022-10-24T18:34:08.215Z,1.40
2022-10-24T18:36:37.594Z,2.03
2022-10-24T18:39:06.206Z,1.65
2022-10-24T18:41:44.890Z,1.58
2022-10-24T18:44:23.164Z,0.90
2022-10-24T18:46:52.432Z,1.95
2022-10-24T18:49:21.024Z,1.50
2022-10-24T18:51:52.213Z,1.40
2022-10-24T18:54:21.320Z,1.70
2022-10-24T18:56:51.184Z,1.23
2022-10-24T18:59:20.619Z,0.95
2022-10-24T19:01:53.238Z,1.17
2022-10-24T19:04:23.014Z,1.65
2022-10-24T19:06:53.270Z,1.58
2022-10-24T19:09:22.605Z,1.25
2022-10-24T19:11:52.625Z,0.90
2022-10-24T19:14:21.532Z,0.80
2022-10-24T19:16:51.166Z,1.23
2022-10-24T19:19:23.368Z,1.20
2022-10-24T19:21:51.807Z,1.15
2022-10-24T19:24:20.114Z,1.15
2022-10-24T19:26:48.511Z,1.05
2022-10-24T19:29:18.259Z,1.30
2022-10-24T19:31:46.985Z,1.00
2022-10-24T19:34:15.358Z,1.60
2022-10-24T19:36:43.753Z,1.40
2022-10-24T19:39:11.978Z,1.00
2022-10-24T19:41:40.544Z,0.90
2022-10-24T19:44:09.066Z,1.63
2022-10-24T19:46:38.661Z,1.98
2022-10-24T19:49:07.296Z,1.10
2022-10-24T19:51:35.641Z,1.30
2022-10-24T19:54:03.842Z,1.30
2022-10-24T19:56:33.307Z,1.83
2022-10-24T19:59:01.824Z,1.73
2022-10-24T20:01:31.102Z,1.70
2022-10-24T20:04:02.094Z,1.48
2022-10-24T20:06:30.468Z,1.45
2022-10-24T20:08:58.690Z,2.13
2022-10-24T20:11:27.006Z,1.67
2022-10-24T20:13:55.361Z,1.52
2022-10-24T20:16:23.596Z,1.33
2022-10-24T20:18:52.057Z,1.63
2022-10-24T20:21:21.797Z,1.55
2022-10-24T20:23:50.587Z,2.63
2022-10-24T20:26:20.354Z,1.55
2022-10-24T20:28:51.339Z,1.67
2022-10-24T20:31:21.434Z,1.13
2022-10-24T20:33:49.711Z,1.08
2022-10-24T20:36:22.501Z,1.50
2022-10-24T20:38:51.377Z,1.30
2022-10-24T20:41:19.605Z,1.60
2022-10-24T20:46:24.346Z,1.08
2022-10-24T20:48:53.386Z,1.52
2022-10-24T20:51:23.346Z,1.10
2022-10-24T20:53:51.929Z,1.60
2022-10-24T20:56:24.662Z,1.38
2022-10-24T20:58:53.512Z,1.50
2022-10-24T21:01:22.472Z,1.30
2022-10-24T21:03:51.186Z,1.00
2022-10-24T21:06:20.086Z,1.50
2022-10-24T21:08:50.823Z,1.25
2022-10-24T21:11:24.588Z,1.02
2022-10-24T21:13:53.608Z,0.80
2022-10-24T21:16:28.466Z,1.10
2022-10-24T21:18:57.471Z,1.20
2022-10-24T21:21:26.091Z,1.10
2022-10-24T21:23:59.635Z,1.30
2022-10-24T21:26:38.339Z,1.13
2022-10-24T21:29:09.381Z,0.90
2022-10-24T21:31:50.492Z,0.80
2022-10-24T21:34:18.870Z,0.85
2022-10-24T21:36:47.070Z,0.85
2022-10-24T21:39:17.484Z,0.85
2022-10-24T21:41:46.191Z,0.80
2022-10-24T21:44:14.388Z,0.70
2022-10-24T21:46:42.712Z,0.68
2022-10-24T21:49:11.733Z,0.40
2022-10-24T21:51:41.666Z,0.90
2022-10-24T21:54:15.871Z,0.90
2022-10-24T21:56:45.507Z,1.13
2022-10-24T21:59:15.202Z,0.68
2022-10-24T22:01:44.243Z,0.55
2022-10-24T22:04:13.124Z,0.73
2022-10-24T22:06:41.714Z,0.90
2022-10-24T22:09:11.778Z,0.55
2022-10-24T22:11:40.622Z,0.60
2022-10-24T22:14:11.963Z,0.70
2022-10-24T22:16:40.805Z,0.55
2022-10-24T22:19:09.387Z,0.77
2022-10-24T22:21:38.684Z,0.77
2022-10-24T22:26:35.984Z,0.50
2022-10-24T22:29:04.404Z,0.60
2022-10-24T22:31:34.335Z,0.75
2022-10-24T22:34:02.665Z,0.90
2022-10-24T22:36:40.168Z,0.95
2022-10-24T22:39:13.812Z,0.65
2022-10-24T22:41:42.677Z,0.77
2022-10-24T22:44:12.635Z,0.88
2022-10-24T22:46:55.512Z,0.93
2022-10-24T22:49:26.524Z,0.80
2022-10-24T22:51:55.055Z,0.88
2022-10-24T22:54:24.915Z,1.40
2022-10-24T22:56:53.631Z,1.02
2022-10-24T22:59:23.472Z,1.00
2022-10-24T23:01:59.657Z,0.70
2022-10-24T23:04:33.139Z,0.77
2022-10-24T23:07:04.466Z,1.25
2022-10-24T23:09:32.947Z,1.10
2022-10-24T23:12:01.374Z,1.27
2022-10-24T23:14:29.972Z,1.00
2022-10-24T23:17:00.633Z,1.25
2022-10-24T23:19:32.463Z,1.55
2022-10-24T23:22:03.073Z,1.88
2022-10-24T23:24:31.555Z,1.80
2022-10-24T23:27:15.309Z,1.40
2022-10-24T23:29:44.449Z,1.75
2022-10-24T23:32:17.871Z,1.40
2022-10-24T23:34:46.522Z,1.63
2022-10-24T23:37:18.837Z,2.20
2022-10-24T23:39:47.307Z,1.73
2022-10-24T23:42:15.873Z,2.15
2022-10-24T23:44:44.456Z,1.80
2022-10-24T23:47:20.463Z,1.85
2022-10-24T23:49:51.488Z,2.45
2022-10-24T23:52:21.523Z,2.60
2022-10-24T23:54:49.951Z,2.65
2022-10-24T23:57:19.687Z,2.58
2022-10-24T23:59:48.295Z,2.53
